Time;durP1;ratioP1;P1;durP2;ratioP2;P2;SDS_P1;SDS_P2;PMS_P1;PMS_P2;Temp;Humidity;BMP_temperature;BMP_pressure;BME280_temperature;BME280_humidity;BME280_pressure;Samples;Min_cycle;Max_cycle;Signal;HPM_P1;HPM_P2
2022/10/28 00:01:12;;;;;;;;;;;13.80;89.10;;;;;;5073680;28;19937;-88
2022/10/28 00:03:38;;;;;;;;;;;13.80;89.00;;;;;;5073514;28;20333;-88
2022/10/28 00:06:05;;;;;;;;;;;13.90;89.30;;;;;;5073519;28;19943;-88
2022/10/28 00:08:30;;;;;;;;;;;13.90;89.70;;;;;;5073520;28;20027;-88
2022/10/28 00:11:03;;;;;;;;;;;13.90;90.20;;;;;;5073416;28;20477;-88
2022/10/28 00:13:29;;;;;;;;;;;13.90;89.90;;;;;;5073428;28;19976;-88
2022/10/28 00:15:54;;;;;;;;;;;13.90;90.40;;;;;;5073438;28;19980;-88
2022/10/28 00:18:20;;;;;;;;;;;13.90;90.40;;;;;;5073393;28;19947;-88
2022/10/28 00:20:45;;;;;;;;;;;13.90;90.10;;;;;;5073317;28;19946;-88
2022/10/28 00:23:11;;;;;;;;;;;13.90;89.50;;;;;;5073324;28;19940;-88
2022/10/28 00:25:36;;;;;;;;;;;13.90;89.20;;;;;;5073256;28;20023;-88
2022/10/28 00:28:02;;;;;;;;;;;13.90;89.00;;;;;;5073235;28;19985;-88
2022/10/28 00:30:27;;;;;;;;;;;13.90;88.80;;;;;;5072994;28;19976;-88
2022/10/28 00:32:53;;;;;;;;;;;13.90;88.50;;;;;;5073234;28;20021;-88
2022/10/28 00:35:18;;;;;;;;;;;13.90;87.20;;;;;;5073158;28;20307;-88
2022/10/28 00:37:44;;;;;;;;;;;13.80;86.20;;;;;;5073128;28;19945;-88
2022/10/28 00:40:10;;;;;;;;;;;13.80;86.70;;;;;;5073079;28;19947;-88
2022/10/28 00:42:35;;;;;;;;;;;13.80;87.20;;;;;;5073115;28;19984;-88
2022/10/28 00:45:01;;;;;;;;;;;13.80;87.90;;;;;;5073090;28;19970;-88
2022/10/28 00:47:39;;;;;;;;;;;13.90;88.50;;;;;;5073027;28;20291;-88
2022/10/28 00:50:04;;;;;;;;;;;13.90;88.90;;;;;;5072921;28;19941;-88
2022/10/28 00:52:30;;;;;;;;;;;13.80;89.20;;;;;;5072812;28;19961;-88
2022/10/28 00:54:58;;;;;;;;;;;13.80;88.60;;;;;;5072950;28;19940;-88
2022/10/28 00:57:25;;;;;;;;;;;13.80;88.70;;;;;;5072931;28;19934;-88
2022/10/28 00:59:52;;;;;;;;;;;13.70;88.70;;;;;;5072956;28;19943;-88
2022/10/28 01:02:18;;;;;;;;;;;13.60;88.60;;;;;;5072914;28;19946;-87
2022/10/28 01:04:44;;;;;;;;;;;13.60;88.70;;;;;;5072936;28;19938;-88
2022/10/28 01:07:10;;;;;;;;;;;13.60;88.50;;;;;;5076745;28;20388;-88
2022/10/28 01:09:37;;;;;;;;;;;13.60;88.80;;;;;;5076863;28;20102;-88
2022/10/28 01:12:10;;;;;;;;;;;13.60;89.10;;;;;;5076977;28;19958;-88
2022/10/28 01:14:51;;;;;;;;;;;13.60;89.60;;;;;;5076819;28;19940;-88
2022/10/28 01:17:35;;;;;;;;;;;13.60;87.60;;;;;;5076690;28;19939;-88
2022/10/28 01:20:15;;;;;;;;;;;13.60;87.60;;;;;;5075379;28;19945;-88
2022/10/28 01:22:46;;;;;;;;;;;13.60;87.60;;;;;;5076626;28;20023;-88
2022/10/28 01:25:23;;;;;;;;;;;13.60;87.20;;;;;;5076592;28;19949;-88
2022/10/28 01:28:06;;;;;;;;;;;13.60;86.60;;;;;;5076458;28;19935;-87
2022/10/28 01:30:50;;;;;;;;;;;13.60;86.10;;;;;;5076288;28;19975;-88
2022/10/28 01:33:35;;;;;;;;;;;13.60;85.60;;;;;;5076362;28;20380;-88
2022/10/28 01:36:06;;;;;;;;;;;13.60;85.60;;;;;;5076352;28;19938;-88
2022/10/28 01:38:37;;;;;;;;;;;13.50;86.00;;;;;;5076311;28;20048;-88
2022/10/28 01:41:21;;;;;;;;;;;13.60;86.30;;;;;;5076238;28;19975;-87
2022/10/28 01:43:52;;;;;;;;;;;13.50;85.80;;;;;;5076201;28;20453;-88
2022/10/28 01:46:23;;;;;;;;;;;13.50;86.30;;;;;;5076116;28;19942;-88
2022/10/28 01:48:55;;;;;;;;;;;13.50;86.50;;;;;;5076156;28;20035;-88
2022/10/28 01:51:20;;;;;;;;;;;13.50;86.50;;;;;;5075809;28;19968;-88
2022/10/28 01:53:48;;;;;;;;;;;13.50;86.40;;;;;;5075960;28;19997;-87
2022/10/28 01:56:16;;;;;;;;;;;13.40;86.50;;;;;;5076284;28;19940;-88
2022/10/28 01:58:42;;;;;;;;;;;13.40;86.30;;;;;;5076223;28;20013;-87
2022/10/28 02:01:09;;;;;;;;;;;13.30;86.10;;;;;;5075934;28;19939;-87
2022/10/28 02:03:34;;;;;;;;;;;13.10;86.40;;;;;;5075873;28;19940;-87
2022/10/28 02:06:02;;;;;;;;;;;12.90;87.70;;;;;;5075783;28;20413;-87
2022/10/28 02:08:31;;;;;;;;;;;12.90;87.60;;;;;;5075836;28;19947;-88
2022/10/28 02:10:59;;;;;;;;;;;12.80;87.40;;;;;;5075925;28;20053;-87
2022/10/28 02:13:36;;;;;;;;;;;12.90;87.40;;;;;;5075678;28;19969;-87
2022/10/28 02:16:17;;;;;;;;;;;12.80;87.10;;;;;;5075682;28;20037;-88
2022/10/28 02:19:03;;;;;;;;;;;12.90;87.20;;;;;;5074856;28;19940;-87
2022/10/28 02:21:29;;;;;;;;;;;12.90;87.10;;;;;;5064178;28;19951;-88
2022/10/28 02:24:04;;;;;;;;;;;12.90;87.40;;;;;;5074132;28;19943;-88
2022/10/28 02:26:38;;;;;;;;;;;12.80;87.20;;;;;;5074122;28;19952;-87
2022/10/28 02:29:03;;;;;;;;;;;12.80;87.40;;;;;;5075204;28;19974;-88
2022/10/28 02:31:33;;;;;;;;;;;12.80;87.60;;;;;;5075219;28;20431;-88
2022/10/28 02:34:01;;;;;;;;;;;12.70;87.80;;;;;;5075322;28;19939;-87
2022/10/28 02:36:28;;;;;;;;;;;12.70;89.00;;;;;;5075309;28;20028;-88
2022/10/28 02:38:55;;;;;;;;;;;12.70;89.50;;;;;;5075299;28;19939;-88
2022/10/28 02:41:23;;;;;;;;;;;12.70;89.00;;;;;;5075361;28;19947;-88
2022/10/28 02:43:52;;;;;;;;;;;12.70;88.80;;;;;;5075131;28;19963;-87
2022/10/28 02:46:18;;;;;;;;;;;12.70;88.40;;;;;;5075421;28;19945;-88
2022/10/28 02:48:46;;;;;;;;;;;12.60;87.70;;;;;;5075321;28;19946;-88
2022/10/28 02:51:23;;;;;;;;;;;12.60;87.50;;;;;;5073474;28;20434;-88
2022/10/28 02:53:49;;;;;;;;;;;12.60;86.90;;;;;;5074919;28;20025;-88
2022/10/28 02:56:15;;;;;;;;;;;12.40;86.50;;;;;;5074905;28;19975;-87
2022/10/28 02:58:41;;;;;;;;;;;12.20;86.70;;;;;;5074829;28;19963;-88
2022/10/28 03:01:06;;;;;;;;;;;12.10;87.50;;;;;;5074790;28;20318;-88
2022/10/28 03:03:32;;;;;;;;;;;12.00;88.40;;;;;;5074749;28;19948;-87
2022/10/28 03:05:58;;;;;;;;;;;11.90;89.30;;;;;;5073429;28;19984;-88
2022/10/28 03:08:24;;;;;;;;;;;11.90;90.10;;;;;;5074577;28;20380;-88
2022/10/28 03:10:49;;;;;;;;;;;11.90;90.60;;;;;;5074525;28;19959;-88
2022/10/28 03:13:15;;;;;;;;;;;12.00;90.70;;;;;;5074537;28;19940;-88
2022/10/28 03:15:40;;;;;;;;;;;12.00;90.90;;;;;;5074455;28;19993;-88
2022/10/28 03:18:06;;;;;;;;;;;12.00;91.20;;;;;;5074403;28;19942;-88
2022/10/28 03:20:32;;;;;;;;;;;12.10;91.10;;;;;;5074347;28;20002;-88
2022/10/28 03:22:57;;;;;;;;;;;12.20;90.90;;;;;;5073011;28;20001;-88
2022/10/28 03:25:23;;;;;;;;;;;12.20;90.80;;;;;;5074296;28;20353;-88
2022/10/28 03:27:48;;;;;;;;;;;12.20;91.10;;;;;;5074122;28;19937;-88
2022/10/28 03:30:14;;;;;;;;;;;12.20;90.90;;;;;;5073980;28;19978;-88
2022/10/28 03:32:42;;;;;;;;;;;12.20;90.20;;;;;;5074150;28;20292;-88
2022/10/28 03:35:08;;;;;;;;;;;12.10;90.20;;;;;;5074072;28;19942;-88
2022/10/28 03:37:33;;;;;;;;;;;12.10;89.20;;;;;;5074023;28;20321;-87
2022/10/28 03:40:01;;;;;;;;;;;12.10;88.80;;;;;;5074005;28;19983;-87
2022/10/28 03:42:27;;;;;;;;;;;12.00;88.30;;;;;;5074484;28;19950;-88
2022/10/28 03:44:52;;;;;;;;;;;12.00;89.50;;;;;;5073898;28;19936;-88
2022/10/28 03:47:18;;;;;;;;;;;12.00;90.50;;;;;;5073843;28;19938;-88
2022/10/28 03:49:43;;;;;;;;;;;12.10;90.70;;;;;;5073837;28;19942;-88
2022/10/28 03:52:09;;;;;;;;;;;12.10;91.20;;;;;;5073509;28;20353;-88
2022/10/28 03:54:34;;;;;;;;;;;12.00;91.30;;;;;;5073730;28;20414;-88
2022/10/28 03:57:00;;;;;;;;;;;12.00;91.50;;;;;;5073672;28;19995;-88
2022/10/28 03:59:25;;;;;;;;;;;12.00;91.60;;;;;;5073670;28;19987;-88
2022/10/28 04:01:51;;;;;;;;;;;12.00;91.70;;;;;;5073635;28;20133;-88
2022/10/28 04:04:16;;;;;;;;;;;12.00;91.60;;;;;;5073508;28;20134;-88
2022/10/28 04:06:42;;;;;;;;;;;12.10;91.70;;;;;;5073484;28;20412;-87
2022/10/28 04:09:07;;;;;;;;;;;12.10;91.30;;;;;;5073502;28;20392;-88
2022/10/28 04:11:33;;;;;;;;;;;12.10;90.60;;;;;;5073408;28;20579;-88
2022/10/28 04:13:58;;;;;;;;;;;12.10;91.00;;;;;;5073364;28;19941;-88
2022/10/28 04:16:24;;;;;;;;;;;12.20;91.00;;;;;;5073414;28;20005;-88
2022/10/28 04:18:49;;;;;;;;;;;12.30;91.00;;;;;;5073389;28;19945;-88
2022/10/28 04:21:15;;;;;;;;;;;12.30;90.40;;;;;;5073346;28;20459;-88
2022/10/28 04:23:41;;;;;;;;;;;12.30;88.70;;;;;;5073317;28;20320;-87
2022/10/28 04:26:06;;;;;;;;;;;12.30;88.20;;;;;;5073299;28;19940;-88
2022/10/28 04:28:32;;;;;;;;;;;12.40;87.80;;;;;;5073043;28;20131;-88
2022/10/28 04:30:57;;;;;;;;;;;12.30;87.60;;;;;;5073164;28;20024;-88
2022/10/28 04:33:23;;;;;;;;;;;12.40;87.00;;;;;;5073136;28;19945;-87
2022/10/28 04:35:48;;;;;;;;;;;12.30;87.50;;;;;;5073183;28;19948;-88
2022/10/28 04:38:14;;;;;;;;;;;12.30;87.00;;;;;;5073143;28;19963;-88
2022/10/28 04:40:40;;;;;;;;;;;12.30;87.00;;;;;;5072637;28;20326;-87
2022/10/28 04:43:05;;;;;;;;;;;12.30;85.90;;;;;;5073124;28;20353;-88
2022/10/28 04:45:31;;;;;;;;;;;12.20;86.00;;;;;;5073118;28;19980;-88
2022/10/28 04:47:59;;;;;;;;;;;12.20;86.30;;;;;;5073078;28;20293;-88
2022/10/28 04:50:25;;;;;;;;;;;12.10;86.20;;;;;;5072938;28;20010;-87
2022/10/28 04:52:51;;;;;;;;;;;12.10;86.70;;;;;;5072717;28;19961;-88
2022/10/28 04:55:17;;;;;;;;;;;12.10;87.20;;;;;;5073005;28;20024;-88
2022/10/28 04:57:43;;;;;;;;;;;12.00;87.30;;;;;;5073303;28;19939;-88
2022/10/28 05:00:09;;;;;;;;;;;12.00;87.90;;;;;;5072876;28;20320;-88
2022/10/28 05:02:34;;;;;;;;;;;12.10;88.50;;;;;;5072926;28;20040;-88
2022/10/28 05:05:02;;;;;;;;;;;12.10;88.30;;;;;;5072861;28;19941;-88
2022/10/28 05:07:28;;;;;;;;;;;12.10;88.80;;;;;;5072868;28;19951;-88
2022/10/28 05:09:53;;;;;;;;;;;12.10;88.20;;;;;;5073337;28;19941;-87
2022/10/28 05:12:19;;;;;;;;;;;12.10;87.70;;;;;;5072474;28;19960;-87
2022/10/28 05:14:44;;;;;;;;;;;12.10;87.50;;;;;;5072784;28;19992;-87
2022/10/28 05:17:10;;;;;;;;;;;12.00;88.30;;;;;;5072715;28;20524;-87
2022/10/28 05:19:35;;;;;;;;;;;12.00;89.50;;;;;;5072326;28;19940;-87
2022/10/28 05:22:01;;;;;;;;;;;12.00;89.90;;;;;;5072239;28;19995;-87
2022/10/28 05:24:27;;;;;;;;;;;12.00;89.70;;;;;;5072511;28;20308;-87
2022/10/28 05:26:52;;;;;;;;;;;11.80;88.90;;;;;;5072403;28;19944;-87
2022/10/28 05:29:18;;;;;;;;;;;11.70;89.10;;;;;;5072313;28;20487;-87
2022/10/28 05:31:44;;;;;;;;;;;11.60;89.90;;;;;;5069068;28;20477;-87
2022/10/28 05:34:10;;;;;;;;;;;11.60;90.60;;;;;;5070488;28;19949;-87
2022/10/28 05:36:35;;;;;;;;;;;11.60;90.90;;;;;;5069418;28;19945;-87
2022/10/28 05:39:01;;;;;;;;;;;11.60;90.50;;;;;;5072455;28;19942;-88
2022/10/28 05:41:26;;;;;;;;;;;11.50;90.50;;;;;;5072171;28;19947;-87
2022/10/28 05:43:52;;;;;;;;;;;11.30;91.10;;;;;;5072430;28;19940;-87
2022/10/28 05:46:17;;;;;;;;;;;11.20;92.50;;;;;;5071648;28;20317;-87
2022/10/28 05:48:43;;;;;;;;;;;11.10;93.10;;;;;;5065684;28;19976;-87
2022/10/28 05:51:09;;;;;;;;;;;11.20;93.40;;;;;;5059431;28;19969;-87
2022/10/28 05:53:34;;;;;;;;;;;11.10;93.60;;;;;;5063227;28;19941;-87
2022/10/28 05:56:00;;;;;;;;;;;11.30;93.60;;;;;;5072308;28;20280;-87
2022/10/28 05:58:25;;;;;;;;;;;11.30;93.40;;;;;;5060147;28;19943;-87
2022/10/28 06:00:51;;;;;;;;;;;11.30;93.30;;;;;;5069555;28;20025;-87
2022/10/28 06:03:16;;;;;;;;;;;11.40;92.70;;;;;;5074379;28;19992;-87
2022/10/28 06:05:43;;;;;;;;;;;11.40;92.40;;;;;;5063684;28;20215;-87
2022/10/28 06:08:10;;;;;;;;;;;11.30;91.70;;;;;;5069656;28;20002;-87
2022/10/28 06:10:35;;;;;;;;;;;11.40;92.60;;;;;;5070761;28;20024;-87
2022/10/28 06:13:01;;;;;;;;;;;11.50;92.10;;;;;;5070661;28;20436;-87
2022/10/28 06:15:26;;;;;;;;;;;11.60;92.30;;;;;;5070178;28;20401;-87
2022/10/28 06:17:52;;;;;;;;;;;11.80;92.60;;;;;;5068570;28;20750;-87
2022/10/28 06:20:17;;;;;;;;;;;11.90;92.50;;;;;;5072023;28;19949;-87
2022/10/28 06:22:50;;;;;;;;;;;12.10;92.50;;;;;;5069292;28;19952;-87
2022/10/28 06:25:16;;;;;;;;;;;12.30;92.00;;;;;;5072330;28;19992;-87
2022/10/28 06:27:41;;;;;;;;;;;12.40;91.30;;;;;;5071408;28;19963;-87
2022/10/28 06:30:07;;;;;;;;;;;12.40;90.90;;;;;;5096715;22;19977;-87
2022/10/28 06:32:33;;;;;;;;;;;12.50;90.40;;;;;;5057628;28;19944;-87
2022/10/28 06:34:58;;;;;;;;;;;12.70;90.50;;;;;;5066303;28;20436;-87
2022/10/28 06:37:24;;;;;;;;;;;12.60;90.70;;;;;;5074313;28;19975;-87
2022/10/28 06:39:53;;;;;;;;;;;12.40;90.80;;;;;;5094117;28;19973;-87
2022/10/28 06:42:18;;;;;;;;;;;12.40;91.20;;;;;;5076130;28;19949;-87
2022/10/28 06:44:44;;;;;;;;;;;12.40;91.50;;;;;;5091718;28;19995;-87
2022/10/28 06:47:10;;;;;;;;;;;12.50;91.50;;;;;;5092271;28;19952;-87
2022/10/28 06:49:35;;;;;;;;;;;12.50;91.70;;;;;;5090296;28;20392;-87
2022/10/28 06:52:01;;;;;;;;;;;12.60;91.80;;;;;;5082161;28;19968;-87
2022/10/28 06:54:26;;;;;;;;;;;12.70;91.60;;;;;;5070511;28;19948;-87
2022/10/28 06:56:52;;;;;;;;;;;12.70;91.80;;;;;;5072289;28;19940;-87
2022/10/28 06:59:17;;;;;;;;;;;12.70;91.90;;;;;;5072362;28;19945;-87
2022/10/28 07:01:43;;;;;;;;;;;12.80;91.50;;;;;;5071270;28;19944;-87
2022/10/28 07:04:12;;;;;;;;;;;12.90;91.30;;;;;;5066859;28;19942;-87
2022/10/28 07:06:38;;;;;;;;;;;12.90;91.20;;;;;;5064577;28;19943;-87
2022/10/28 07:09:03;;;;;;;;;;;13.00;91.10;;;;;;5064165;28;19949;-87
2022/10/28 07:11:29;;;;;;;;;;;13.10;91.40;;;;;;5066489;28;20081;-87
2022/10/28 07:13:54;;;;;;;;;;;13.20;91.10;;;;;;5069204;28;20037;-88
2022/10/28 07:16:20;;;;;;;;;;;13.20;90.90;;;;;;5069084;28;20049;-88
2022/10/28 07:18:45;;;;;;;;;;;13.30;91.20;;;;;;5070822;28;20037;-88
2022/10/28 07:21:12;;;;;;;;;;;13.30;90.80;;;;;;5055200;28;19945;-87
2022/10/28 07:23:38;;;;;;;;;;;13.40;91.30;;;;;;5070585;28;20039;-88
2022/10/28 07:26:04;;;;;;;;;;;13.60;91.40;;;;;;5067638;28;20037;-87
2022/10/28 07:28:29;;;;;;;;;;;13.70;91.20;;;;;;5071563;28;19986;-88
2022/10/28 07:30:59;;;;;;;;;;;13.90;90.80;;;;;;5068018;28;19959;-88
2022/10/28 07:33:24;;;;;;;;;;;14.00;90.90;;;;;;5069013;28;19952;-88
2022/10/28 07:35:50;;;;;;;;;;;14.10;90.80;;;;;;5064163;28;20465;-88
2022/10/28 07:38:15;;;;;;;;;;;14.30;90.50;;;;;;5063353;28;19953;-87
2022/10/28 07:40:41;;;;;;;;;;;14.40;90.00;;;;;;5061030;28;19948;-88
2022/10/28 07:43:06;;;;;;;;;;;14.60;88.80;;;;;;5062302;28;19947;-88
2022/10/28 07:45:34;;;;;;;;;;;14.80;87.00;;;;;;5061202;28;20060;-88
2022/10/28 07:47:59;;;;;;;;;;;14.90;86.70;;;;;;5059546;28;19944;-89
2022/10/28 07:50:25;;;;;;;;;;;15.10;85.90;;;;;;5063549;28;19947;-89
2022/10/28 07:52:50;;;;;;;;;;;15.30;85.10;;;;;;5064658;28;19964;-88
2022/10/28 07:55:16;;;;;;;;;;;15.50;84.50;;;;;;5064920;28;20002;-89
2022/10/28 07:57:41;;;;;;;;;;;15.70;83.90;;;;;;5070781;28;19996;-89
2022/10/28 08:00:07;;;;;;;;;;;15.90;82.60;;;;;;5069325;28;19969;-88
2022/10/28 08:02:33;;;;;;;;;;;16.10;82.30;;;;;;5053732;28;19942;-90
2022/10/28 08:05:00;;;;;;;;;;;16.40;80.90;;;;;;5067035;28;19957;-89
2022/10/28 08:07:26;;;;;;;;;;;16.60;81.70;;;;;;5065585;28;19937;-89
2022/10/28 08:09:51;;;;;;;;;;;16.50;81.90;;;;;;5045483;28;19946;-89
2022/10/28 08:12:17;;;;;;;;;;;16.60;81.80;;;;;;5065445;28;19948;-89
2022/10/28 08:14:42;;;;;;;;;;;16.70;81.50;;;;;;5062854;28;20001;-89
2022/10/28 08:17:08;;;;;;;;;;;16.80;82.20;;;;;;5062887;28;20084;-89
2022/10/28 08:19:34;;;;;;;;;;;16.70;81.90;;;;;;5065803;28;19994;-89
2022/10/28 08:22:01;;;;;;;;;;;16.70;82.20;;;;;;5065527;28;20426;-89
2022/10/28 08:24:26;;;;;;;;;;;16.70;81.80;;;;;;5043583;28;20042;-89
2022/10/28 08:26:52;;;;;;;;;;;16.80;81.90;;;;;;5062873;28;20408;-88
2022/10/28 08:29:17;;;;;;;;;;;16.90;81.80;;;;;;5061401;28;20446;-88
2022/10/28 08:31:43;;;;;;;;;;;16.90;81.00;;;;;;5061679;28;19966;-89
2022/10/28 08:34:08;;;;;;;;;;;16.90;79.70;;;;;;5063473;28;20289;-89
2022/10/28 08:36:34;;;;;;;;;;;17.10;79.20;;;;;;5065553;28;19947;-89
2022/10/28 08:39:00;;;;;;;;;;;17.20;78.20;;;;;;5062498;28;19942;-89
2022/10/28 08:41:44;;;;;;;;;;;17.30;77.40;;;;;;5059735;28;20068;-89
2022/10/28 08:44:16;;;;;;;;;;;17.40;77.60;;;;;;5061479;28;19954;-89
2022/10/28 08:46:41;;;;;;;;;;;17.50;73.80;;;;;;5059197;28;20388;-90
2022/10/28 08:49:10;;;;;;;;;;;17.70;74.70;;;;;;5061441;28;19947;-89
2022/10/28 08:51:39;;;;;;;;;;;17.80;75.10;;;;;;5061308;28;19979;-89
2022/10/28 08:54:10;;;;;;;;;;;17.80;75.50;;;;;;5057170;28;20380;-89
2022/10/28 08:56:44;;;;;;;;;;;17.80;73.00;;;;;;5062409;28;20493;-89
2022/10/28 08:59:30;;;;;;;;;;;17.90;74.00;;;;;;5064301;28;20421;-89
2022/10/28 09:01:58;;;;;;;;;;;18.10;74.80;;;;;;5063842;28;19977;-89
2022/10/28 09:04:40;;;;;;;;;;;18.30;74.80;;;;;;5065694;28;20110;-89
2022/10/28 09:07:17;;;;;;;;;;;18.40;75.60;;;;;;5063123;28;19942;-89
2022/10/28 09:09:43;;;;;;;;;;;18.50;74.50;;;;;;5062404;28;19942;-89
2022/10/28 09:12:27;;;;;;;;;;;18.60;72.50;;;;;;5061092;28;19969;-89
2022/10/28 09:15:11;;;;;;;;;;;18.60;72.00;;;;;;5061322;28;19945;-89
2022/10/28 09:17:43;;;;;;;;;;;18.80;71.70;;;;;;5062423;28;20387;-88
2022/10/28 09:20:20;;;;;;;;;;;18.90;71.00;;;;;;5060687;28;19949;-88
2022/10/28 09:22:55;;;;;;;;;;;19.10;72.20;;;;;;5062809;28;19959;-89
2022/10/28 09:25:20;;;;;;;;;;;19.20;70.40;;;;;;5043002;28;19947;-88
2022/10/28 09:27:49;;;;;;;;;;;19.30;70.10;;;;;;5065525;28;20045;-88
2022/10/28 09:30:25;;;;;;;;;;;19.40;69.80;;;;;;5066398;28;19974;-88
2022/10/28 09:33:02;;;;;;;;;;;19.60;67.20;;;;;;5067013;28;19949;-88
2022/10/28 09:35:30;;;;;;;;;;;19.70;69.20;;;;;;5066252;28;20023;-88
2022/10/28 09:38:22;;;;;;;;;;;19.80;68.60;;;;;;5065790;28;19947;-88
2022/10/28 09:40:51;;;;;;;;;;;19.90;68.40;;;;;;5062838;28;20185;-88
2022/10/28 09:43:34;;;;;;;;;;;19.90;67.10;;;;;;5063151;28;19944;-88
2022/10/28 09:46:06;;;;;;;;;;;20.00;67.70;;;;;;5066551;28;19948;-89
2022/10/28 09:48:37;;;;;;;;;;;20.20;67.60;;;;;;5069624;28;19954;-89
2022/10/28 09:51:02;;;;;;;;;;;20.30;67.00;;;;;;5068621;28;19969;-88
2022/10/28 09:53:46;;;;;;;;;;;20.30;65.30;;;;;;5062873;28;19950;-90
2022/10/28 09:56:11;;;;;;;;;;;20.30;64.70;;;;;;5064870;28;19973;-90
2022/10/28 09:58:39;;;;;;;;;;;20.40;66.50;;;;;;5068661;28;20400;-88
2022/10/28 10:01:05;;;;;;;;;;;20.40;64.40;;;;;;5072061;28;19948;-90
2022/10/28 10:03:31;;;;;;;;;;;20.50;64.50;;;;;;5069626;28;19961;-89
2022/10/28 10:05:58;;;;;;;;;;;20.50;63.70;;;;;;5066843;28;19947;-89
2022/10/28 10:08:24;;;;;;;;;;;20.60;64.80;;;;;;5075116;28;19949;-89
2022/10/28 10:10:56;;;;;;;;;;;20.60;66.40;;;;;;5070343;28;19975;-88
2022/10/28 10:13:25;;;;;;;;;;;20.70;66.30;;;;;;5075628;28;19978;-89
2022/10/28 10:15:55;;;;;;;;;;;20.80;64.80;;;;;;5075551;28;19984;-89
2022/10/28 10:18:23;;;;;;;;;;;20.80;66.10;;;;;;5075267;28;20018;-88
2022/10/28 10:20:57;;;;;;;;;;;20.80;66.40;;;;;;5075549;28;20312;-89
2022/10/28 10:23:30;;;;;;;;;;;21.00;66.80;;;;;;5075569;28;20302;-89
2022/10/28 10:25:57;;;;;;;;;;;21.00;64.90;;;;;;5075193;28;20431;-89
2022/10/28 10:28:24;;;;;;;;;;;21.10;65.40;;;;;;5075284;28;19936;-89
2022/10/28 10:30:51;;;;;;;;;;;21.20;66.90;;;;;;5075285;28;19955;-88
2022/10/28 10:33:29;;;;;;;;;;;21.30;69.30;;;;;;5075245;28;19953;-89
2022/10/28 10:35:56;;;;;;;;;;;21.30;67.50;;;;;;5075312;28;19947;-89
2022/10/28 10:38:22;;;;;;;;;;;21.40;66.70;;;;;;5074514;28;20303;-89
2022/10/28 10:40:49;;;;;;;;;;;21.40;66.70;;;;;;5057355;28;19937;-88
2022/10/28 10:43:17;;;;;;;;;;;21.50;66.80;;;;;;5075169;28;19940;-88
2022/10/28 10:45:51;;;;;;;;;;;21.70;65.80;;;;;;5075085;28;20444;-89
2022/10/28 10:48:17;;;;;;;;;;;21.80;64.60;;;;;;5075008;28;20375;-89
2022/10/28 10:50:47;;;;;;;;;;;21.90;65.70;;;;;;5075078;28;20018;-88
2022/10/28 10:53:20;;;;;;;;;;;21.90;66.50;;;;;;5075115;28;20040;-89
2022/10/28 10:56:14;;;;;;;;;;;21.90;65.60;;;;;;5074670;28;20049;-89
2022/10/28 10:58:47;;;;;;;;;;;22.00;66.80;;;;;;5072065;28;20013;-89
2022/10/28 11:01:16;;;;;;;;;;;22.10;66.90;;;;;;5074833;28;19941;-89
2022/10/28 11:03:50;;;;;;;;;;;22.30;66.60;;;;;;5074801;28;20416;-89
2022/10/28 11:06:20;;;;;;;;;;;22.30;65.50;;;;;;5074696;28;19945;-89
2022/10/28 11:08:46;;;;;;;;;;;22.50;65.00;;;;;;5074482;28;19938;-89
2022/10/28 11:11:12;;;;;;;;;;;22.60;63.70;;;;;;5056625;28;20321;-88
2022/10/28 11:13:38;;;;;;;;;;;22.80;63.50;;;;;;5074852;28;19951;-89
2022/10/28 11:16:16;;;;;;;;;;;22.90;63.60;;;;;;5074519;28;19951;-89
2022/10/28 11:18:43;;;;;;;;;;;23.10;62.70;;;;;;5074471;28;19990;-89
2022/10/28 11:21:21;;;;;;;;;;;23.20;62.10;;;;;;5074211;28;19943;-89
2022/10/28 11:23:49;;;;;;;;;;;23.30;63.20;;;;;;5074109;28;19945;-90
2022/10/28 11:26:16;;;;;;;;;;;23.40;62.50;;;;;;5073951;28;19955;-89
2022/10/28 11:29:00;;;;;;;;;;;23.60;62.70;;;;;;5073821;28;20001;-89
2022/10/28 11:31:34;;;;;;;;;;;23.90;61.50;;;;;;5070051;28;20477;-89
2022/10/28 11:34:13;;;;;;;;;;;24.20;60.90;;;;;;5067926;28;19965;-89
2022/10/28 11:36:39;;;;;;;;;;;24.20;60.60;;;;;;5071827;28;20002;-89
2022/10/28 11:39:04;;;;;;;;;;;24.10;60.40;;;;;;5070824;28;20363;-89
2022/10/28 11:41:53;;;;;;;;;;;24.30;60.70;;;;;;5072735;28;20032;-90
2022/10/28 11:44:37;;;;;;;;;;;24.60;60.20;;;;;;5067543;28;19990;-90
2022/10/28 11:47:02;;;;;;;;;;;25.00;58.60;;;;;;5061541;28;19947;-89
2022/10/28 11:49:31;;;;;;;;;;;25.20;59.00;;;;;;5072045;28;20334;-90
2022/10/28 11:52:11;;;;;;;;;;;25.80;57.50;;;;;;5071160;28;19978;-90
2022/10/28 11:54:41;;;;;;;;;;;26.20;56.00;;;;;;5064695;28;20303;-90
2022/10/28 11:57:13;;;;;;;;;;;26.60;54.10;;;;;;5072805;28;19943;-89
2022/10/28 11:59:47;;;;;;;;;;;27.00;53.40;;;;;;5071478;28;20000;-89
2022/10/28 12:02:31;;;;;;;;;;;27.00;52.30;;;;;;5069192;28;19950;-90
2022/10/28 12:05:01;;;;;;;;;;;27.00;51.20;;;;;;5055419;28;19946;-89
2022/10/28 12:07:27;;;;;;;;;;;27.40;50.90;;;;;;5068426;28;19950;-89
2022/10/28 12:10:15;;;;;;;;;;;27.70;51.50;;;;;;5068489;28;20030;-89
2022/10/28 12:12:40;;;;;;;;;;;28.40;48.60;;;;;;5069881;28;19955;-89
2022/10/28 12:15:21;;;;;;;;;;;28.30;47.90;;;;;;5071094;28;19956;-89
2022/10/28 12:17:55;;;;;;;;;;;28.20;48.90;;;;;;5069452;28;19956;-90
2022/10/28 12:20:21;;;;;;;;;;;28.90;48.20;;;;;;5053406;28;20357;-90
2022/10/28 12:22:49;;;;;;;;;;;29.40;47.00;;;;;;5057743;28;19940;-89
2022/10/28 12:25:17;;;;;;;;;;;29.00;47.40;;;;;;5068631;28;19949;-89
2022/10/28 12:27:43;;;;;;;;;;;28.80;48.50;;;;;;5070082;28;20030;-89
2022/10/28 12:30:12;;;;;;;;;;;28.70;48.50;;;;;;5069205;28;20139;-89
2022/10/28 12:32:38;;;;;;;;;;;28.20;49.30;;;;;;5062606;28;20018;-89
2022/10/28 12:35:22;;;;;;;;;;;27.90;50.50;;;;;;5064121;28;20043;-90
2022/10/28 12:37:57;;;;;;;;;;;28.30;50.60;;;;;;5066355;28;19968;-89
2022/10/28 12:40:24;;;;;;;;;;;28.00;50.50;;;;;;5066609;28;20054;-88
2022/10/28 12:42:58;;;;;;;;;;;27.90;49.80;;;;;;5044278;28;19977;-89
2022/10/28 12:45:24;;;;;;;;;;;28.00;49.80;;;;;;5059388;28;19942;-89
2022/10/28 12:48:03;;;;;;;;;;;28.70;49.10;;;;;;5060749;28;19953;-89
2022/10/28 12:50:43;;;;;;;;;;;28.60;48.70;;;;;;5042208;28;20593;-89
2022/10/28 12:53:27;;;;;;;;;;;28.30;50.60;;;;;;5062746;28;19951;-89
2022/10/28 12:55:58;;;;;;;;;;;28.30;50.20;;;;;;5060891;28;20436;-90
2022/10/28 12:58:33;;;;;;;;;;;28.60;49.70;;;;;;5065772;28;20004;-90
2022/10/28 13:01:09;;;;;;;;;;;28.60;48.90;;;;;;5066005;28;20035;-89
2022/10/28 13:03:35;;;;;;;;;;;28.90;48.40;;;;;;5069357;28;19952;-90
2022/10/28 13:06:19;;;;;;;;;;;28.80;48.90;;;;;;5062847;28;19950;-89
2022/10/28 13:08:47;;;;;;;;;;;28.70;48.90;;;;;;5069028;28;19947;-89
2022/10/28 13:11:31;;;;;;;;;;;28.90;47.80;;;;;;5055403;28;20541;-89
2022/10/28 13:13:56;;;;;;;;;;;29.30;46.30;;;;;;5071659;28;19946;-89
2022/10/28 13:16:31;;;;;;;;;;;29.70;46.10;;;;;;5068604;28;20050;-90
2022/10/28 13:18:57;;;;;;;;;;;30.00;45.30;;;;;;5071220;28;20012;-89
2022/10/28 13:21:41;;;;;;;;;;;29.90;45.40;;;;;;5072443;28;20053;-89
2022/10/28 13:24:18;;;;;;;;;;;30.20;45.10;;;;;;5070729;28;19941;-90
2022/10/28 13:26:44;;;;;;;;;;;30.20;44.90;;;;;;5066793;28;19940;-89
2022/10/28 13:29:19;;;;;;;;;;;29.80;44.10;;;;;;5070080;28;19976;-89
2022/10/28 13:31:45;;;;;;;;;;;29.70;45.20;;;;;;5068853;28;19958;-90
2022/10/28 13:34:12;;;;;;;;;;;30.30;45.00;;;;;;5072589;28;19949;-89
2022/10/28 13:36:45;;;;;;;;;;;30.40;44.40;;;;;;5073531;28;19946;-89
2022/10/28 13:39:26;;;;;;;;;;;30.60;44.20;;;;;;5068859;28;19995;-89
2022/10/28 13:42:12;;;;;;;;;;;30.50;42.70;;;;;;5054165;28;19959;-89
2022/10/28 13:44:47;;;;;;;;;;;30.00;42.40;;;;;;5030328;28;19952;-89
2022/10/28 13:47:15;;;;;;;;;;;29.90;42.40;;;;;;5066491;28;19954;-89
2022/10/28 13:49:59;;;;;;;;;;;29.50;43.70;;;;;;5066131;28;19994;-89
2022/10/28 13:52:24;;;;;;;;;;;28.90;45.00;;;;;;5070698;28;19963;-89
2022/10/28 13:54:52;;;;;;;;;;;29.00;45.10;;;;;;5072138;28;19995;-89
2022/10/28 13:57:36;;;;;;;;;;;29.00;45.60;;;;;;5073120;28;20396;-89
2022/10/28 14:00:25;;;;;;;;;;;28.90;45.50;;;;;;5053687;28;19943;-90
2022/10/28 14:02:53;;;;;;;;;;;29.00;45.40;;;;;;5049400;28;20428;-89
2022/10/28 14:05:42;;;;;;;;;;;29.50;43.30;;;;;;5074235;28;19957;-89
2022/10/28 14:08:18;;;;;;;;;;;29.80;42.70;;;;;;5072931;28;19957;-89
2022/10/28 14:11:04;;;;;;;;;;;29.90;43.80;;;;;;5065715;28;19967;-89
2022/10/28 14:13:32;;;;;;;;;;;29.70;42.60;;;;;;5068727;28;20043;-89
2022/10/28 14:16:15;;;;;;;;;;;29.70;42.70;;;;;;5071279;28;20087;-89
2022/10/28 14:18:41;;;;;;;;;;;29.40;44.30;;;;;;5068384;28;19959;-89
2022/10/28 14:21:07;;;;;;;;;;;29.20;44.90;;;;;;5073125;28;19945;-89
2022/10/28 14:23:32;;;;;;;;;;;28.90;45.80;;;;;;5073660;28;20313;-89
2022/10/28 14:26:00;;;;;;;;;;;28.70;46.20;;;;;;5071522;28;20166;-89
2022/10/28 14:28:26;;;;;;;;;;;28.70;45.70;;;;;;5079704;22;19950;-90